LIBF/FOG METAR and TAF weather

Enter ICAO airport designator
Station Type Date Time Source
LIBF METAR 2019/06/16 15:50 UTC NOAA

LIBF 161550Z 32012KT CAVOK 34/13 Q1010


Station Type Date Time Source
LIBF Decoded METAR 2019/06/16 15:50 UTC NOAA

Station name not available
Jun 16, 2019 - 11:50 AM EDT / 2019.06.16 1550 UTC
Wind: from the NW (320 degrees) at 14 MPH (12 KT):0
Visibility: greater than 7 mile(s):0
Temperature: 93 F (34 C)
Dew Point: 55 F (13 C)
Relative Humidity: 28%
Pressure (altimeter): 29.83 in. Hg (1010 hPa)
ob: LIBF 161550Z 32012KT CAVOK 34/13 Q1010
cycle: 16

Station Type Date Time Source
LIBF TAF 2015/04/03 06:00 UTC NOAA

TAF LIBF 030500Z 0306/0406 35014KT 9999 FEW030

Example: see airport list